Time;durP1;ratioP1;P1;durP2;ratioP2;P2;SDS_P1;SDS_P2;PMS_P1;PMS_P2;Temp;Humidity;BMP_temperature;BMP_pressure;BME280_temperature;BME280_humidity;BME280_pressure;Samples;Min_cycle;Max_cycle;Signal;HPM_P1;HPM_P2
2024/01/05 00:01:47;;;;;;;9.57;2.70;;;9.80;99.90;;;;;;4994576;28;20182;-73
2024/01/05 00:04:13;;;;;;;8.63;3.47;;;9.80;99.90;;;;;;5007971;28;20174;-73
2024/01/05 00:06:39;;;;;;;9.67;2.73;;;9.80;99.90;;;;;;4992936;28;20206;-72
2024/01/05 00:09:06;;;;;;;6.68;1.85;;;9.80;99.90;;;;;;5000100;28;20585;-73
2024/01/05 00:11:32;;;;;;;7.25;1.60;;;9.90;99.90;;;;;;4978209;28;20237;-74
2024/01/05 00:13:58;;;;;;;11.23;2.13;;;9.90;99.90;;;;;;4991843;28;20190;-74
2024/01/05 00:16:23;;;;;;;14.53;2.10;;;9.90;99.90;;;;;;5009994;28;20641;-74
2024/01/05 00:18:54;;;;;;;12.27;3.23;;;9.90;99.90;;;;;;4994495;28;20179;-73
2024/01/05 00:21:21;;;;;;;12.25;2.50;;;9.90;99.90;;;;;;4981790;28;20609;-74
2024/01/05 00:23:48;;;;;;;9.80;1.85;;;9.90;99.90;;;;;;4995877;28;20177;-74
2024/01/05 00:26:13;;;;;;;11.82;2.30;;;10.00;99.90;;;;;;4975630;28;20206;-73
2024/01/05 00:28:39;;;;;;;10.37;2.07;;;9.90;99.90;;;;;;4998676;28;20715;-74
2024/01/05 00:31:05;;;;;;;7.37;1.97;;;10.00;99.90;;;;;;4997370;28;20182;-74
2024/01/05 00:33:30;;;;;;;6.53;2.13;;;10.00;99.90;;;;;;4977385;28;20560;-73
2024/01/05 00:35:56;;;;;;;14.10;1.83;;;10.00;99.90;;;;;;4994147;28;20276;-74
2024/01/05 00:38:22;;;;;;;7.87;1.40;;;10.00;99.90;;;;;;4964637;28;20590;-72
2024/01/05 00:40:47;;;;;;;11.53;1.70;;;10.10;99.90;;;;;;4980266;28;20579;-72
2024/01/05 00:43:13;;;;;;;8.07;1.90;;;10.10;99.90;;;;;;4974508;28;20310;-72
2024/01/05 00:45:39;;;;;;;5.47;1.53;;;10.00;99.90;;;;;;4975718;28;20456;-73
2024/01/05 00:48:05;;;;;;;11.23;1.77;;;10.10;99.90;;;;;;5002114;28;20229;-72
2024/01/05 00:50:30;;;;;;;5.73;1.57;;;10.10;99.90;;;;;;5004354;28;20196;-77
2024/01/05 00:52:56;;;;;;;7.00;1.27;;;10.10;99.90;;;;;;5002284;28;20581;-78
2024/01/05 00:55:23;;;;;;;6.57;1.40;;;10.10;99.90;;;;;;4975269;28;20198;-77
2024/01/05 00:57:49;;;;;;;5.75;1.67;;;10.20;99.90;;;;;;5009069;28;20202;-78
2024/01/05 01:00:15;;;;;;;8.90;2.00;;;10.10;99.90;;;;;;5003893;28;20258;-78
2024/01/05 01:02:41;;;;;;;8.20;1.75;;;10.10;99.90;;;;;;4986492;28;20178;-78
2024/01/05 01:05:08;;;;;;;5.03;1.30;;;10.10;99.90;;;;;;5004388;28;20195;-79
2024/01/05 01:07:33;;;;;;;4.95;1.33;;;10.10;99.90;;;;;;4987809;28;20205;-78
2024/01/05 01:09:59;;;;;;;3.00;1.13;;;10.10;99.90;;;;;;4974972;28;20186;-79
2024/01/05 01:12:26;;;;;;;10.20;2.13;;;10.10;99.90;;;;;;4974929;28;20234;-79
2024/01/05 01:14:52;;;;;;;7.25;1.40;;;10.10;99.90;;;;;;4991996;28;20199;-79
2024/01/05 01:17:18;;;;;;;12.00;2.42;;;10.10;99.90;;;;;;4974144;28;20206;-79
2024/01/05 01:19:44;;;;;;;6.13;1.60;;;10.00;99.90;;;;;;4982770;28;20177;-79
2024/01/05 01:22:10;;;;;;;5.70;1.37;;;10.10;99.90;;;;;;4974560;28;21190;-79
2024/01/05 01:24:35;;;;;;;6.80;1.80;;;10.10;99.90;;;;;;4965156;28;20510;-79
2024/01/05 01:27:01;;;;;;;8.17;1.70;;;10.10;99.90;;;;;;4992545;28;20590;-79
2024/01/05 01:29:27;;;;;;;5.80;1.50;;;10.10;99.90;;;;;;4974459;28;20179;-79
2024/01/05 01:31:53;;;;;;;7.67;1.60;;;10.10;99.90;;;;;;4974462;28;20594;-79
2024/01/05 01:34:18;;;;;;;6.23;1.83;;;10.10;99.90;;;;;;4991932;28;20653;-79
2024/01/05 01:36:44;;;;;;;8.33;1.20;;;10.10;99.90;;;;;;4973871;28;20217;-79
2024/01/05 01:39:11;;;;;;;10.73;2.93;;;10.10;99.90;;;;;;4990783;28;20237;-78
2024/01/05 01:41:37;;;;;;;10.43;2.47;;;10.10;99.90;;;;;;4974639;28;20183;-78
2024/01/05 01:44:03;;;;;;;6.55;2.15;;;10.10;99.90;;;;;;4978057;28;20237;-78
2024/01/05 01:46:31;;;;;;;4.90;1.50;;;10.10;99.90;;;;;;4980129;28;20194;-78
2024/01/05 01:48:57;;;;;;;8.80;2.22;;;10.10;99.90;;;;;;4984209;28;20621;-78
2024/01/05 01:51:23;;;;;;;5.93;1.40;;;10.10;99.90;;;;;;5000090;28;20669;-78
2024/01/05 01:53:51;;;;;;;6.97;2.20;;;10.10;99.90;;;;;;4991253;28;20265;-78
2024/01/05 01:56:18;;;;;;;8.85;1.55;;;10.10;99.90;;;;;;4974100;28;20676;-78
2024/01/05 01:58:44;;;;;;;7.03;1.65;;;10.10;99.90;;;;;;4981400;28;20167;-78
2024/01/05 02:01:09;;;;;;;6.72;1.83;;;10.10;99.90;;;;;;4974241;28;20175;-77
2024/01/05 02:03:35;;;;;;;5.10;1.93;;;10.10;99.90;;;;;;4973965;28;20175;-78
2024/01/05 02:06:01;;;;;;;5.07;1.55;;;10.10;99.90;;;;;;5022543;23;20210;-75
2024/01/05 02:08:27;;;;;;;4.87;1.47;;;10.10;99.90;;;;;;5050913;28;20668;-78
2024/01/05 02:11:13;;;;;;;10.63;1.80;;;10.20;99.90;;;;;;5058897;28;20275;-78
2024/01/05 02:13:39;;;;;;;7.28;2.10;;;10.10;99.90;;;;;;5047829;28;20174;-78
2024/01/05 02:16:05;;;;;;;10.05;2.47;;;10.10;99.90;;;;;;5039015;28;20200;-78
2024/01/05 02:18:31;;;;;;;9.00;1.97;;;10.20;99.90;;;;;;5029844;28;20181;-76
2024/01/05 02:21:00;;;;;;;3.50;1.10;;;10.20;99.90;;;;;;5014068;28;20580;-76
2024/01/05 02:23:27;;;;;;;9.57;1.48;;;10.20;99.90;;;;;;5027016;28;20172;-76
2024/01/05 02:25:55;;;;;;;6.00;1.30;;;10.20;99.90;;;;;;5012580;28;20628;-76
2024/01/05 02:28:21;;;;;;;4.22;1.35;;;10.20;99.90;;;;;;5029683;28;20605;-76
2024/01/05 02:30:47;;;;;;;7.40;1.90;;;10.20;99.90;;;;;;5013056;28;20292;-76
2024/01/05 02:33:13;;;;;;;7.50;2.40;;;10.20;99.90;;;;;;5040852;28;20584;-76
2024/01/05 02:35:39;;;;;;;5.60;1.53;;;10.20;99.90;;;;;;5030278;28;20608;-76
2024/01/05 02:38:05;;;;;;;9.03;2.10;;;10.20;99.90;;;;;;5028101;28;20714;-76
2024/01/05 02:40:31;;;;;;;3.38;1.50;;;10.20;99.90;;;;;;5012633;28;20715;-76
2024/01/05 02:42:57;;;;;;;11.90;1.97;;;10.20;99.90;;;;;;5028595;28;20622;-76
2024/01/05 02:45:24;;;;;;;5.00;2.17;;;10.20;99.90;;;;;;5024960;28;20186;-76
2024/01/05 02:47:53;;;;;;;6.85;1.75;;;10.20;99.90;;;;;;5024548;28;20196;-77
2024/01/05 02:50:19;;;;;;;6.95;1.40;;;10.20;99.90;;;;;;5012699;28;20173;-77
2024/01/05 02:52:45;;;;;;;5.13;1.23;;;10.20;99.90;;;;;;5012389;28;20184;-77
2024/01/05 02:55:11;;;;;;;4.37;1.27;;;10.20;99.90;;;;;;5012248;28;20174;-77
2024/01/05 02:57:37;;;;;;;10.10;1.50;;;10.20;99.90;;;;;;5029134;28;20633;-77
2024/01/05 03:00:04;;;;;;;4.47;1.08;;;10.20;99.90;;;;;;5012270;28;20585;-77
2024/01/05 03:02:30;;;;;;;5.63;1.60;;;10.20;99.90;;;;;;5026027;28;20219;-77
2024/01/05 03:04:55;;;;;;;4.17;1.50;;;10.10;99.90;;;;;;4983013;28;20542;-77
2024/01/05 03:07:21;;;;;;;6.30;1.60;;;10.10;99.90;;;;;;5023861;28;20253;-77
2024/01/05 03:09:47;;;;;;;9.70;1.90;;;10.10;99.90;;;;;;5018683;28;20173;-77
2024/01/05 03:12:13;;;;;;;9.23;1.57;;;10.10;99.90;;;;;;5033618;28;20611;-77
2024/01/05 03:14:38;;;;;;;7.07;1.57;;;10.10;99.90;;;;;;5059044;28;20173;-77
2024/01/05 03:17:04;;;;;;;6.20;1.93;;;10.10;99.90;;;;;;5016918;28;20206;-77
2024/01/05 03:19:30;;;;;;;6.83;1.17;;;10.10;99.90;;;;;;5029398;28;20176;-77
2024/01/05 03:21:55;;;;;;;6.37;1.80;;;10.10;99.90;;;;;;5027576;28;20234;-77
2024/01/05 03:24:21;;;;;;;5.40;1.83;;;10.10;99.90;;;;;;5023299;28;20177;-76
2024/01/05 03:26:47;;;;;;;8.13;1.50;;;10.20;99.90;;;;;;5041350;28;20208;-77
2024/01/05 03:29:12;;;;;;;6.03;1.77;;;10.20;99.90;;;;;;5018459;28;20177;-76
2024/01/05 03:31:38;;;;;;;8.90;2.27;;;10.20;99.90;;;;;;5029336;28;20189;-78
2024/01/05 03:34:04;;;;;;;7.23;1.50;;;10.10;99.90;;;;;;5023552;28;20185;-76
2024/01/05 03:36:29;;;;;;;5.53;1.57;;;10.10;99.90;;;;;;5015507;28;20629;-76
2024/01/05 03:38:55;;;;;;;3.60;1.30;;;10.20;99.90;;;;;;5014999;28;20698;-76
2024/01/05 03:41:21;;;;;;;8.60;1.47;;;10.20;99.90;;;;;;5037110;28;20644;-76
2024/01/05 03:43:48;;;;;;;6.57;1.50;;;10.20;99.90;;;;;;5037431;28;20619;-76
2024/01/05 03:46:13;;;;;;;3.50;1.20;;;10.30;99.90;;;;;;5019274;28;20628;-76
2024/01/05 03:48:39;;;;;;;6.37;1.33;;;10.20;99.90;;;;;;5012902;28;20180;-78
2024/01/05 03:51:05;;;;;;;3.63;1.10;;;10.20;99.90;;;;;;5000897;28;20177;-77
2024/01/05 03:53:31;;;;;;;6.65;1.98;;;10.20;99.90;;;;;;5015297;28;20185;-76
2024/01/05 03:56:00;;;;;;;5.67;1.47;;;10.10;99.90;;;;;;5022921;28;20231;-77
2024/01/05 03:58:28;;;;;;;6.72;1.50;;;10.10;99.90;;;;;;5032734;28;20599;-77
2024/01/05 04:00:54;;;;;;;5.43;1.63;;;10.10;99.90;;;;;;5023630;28;20169;-77
2024/01/05 04:03:19;;;;;;;4.43;1.50;;;10.10;99.90;;;;;;5048678;28;20292;-77
2024/01/05 04:05:46;;;;;;;6.40;2.10;;;10.10;99.90;;;;;;5019778;28;20213;-77
2024/01/05 04:08:12;;;;;;;4.45;1.60;;;10.10;99.90;;;;;;5014310;28;20296;-76
2024/01/05 04:10:38;;;;;;;9.07;1.23;;;10.10;99.90;;;;;;5004596;28;20268;-78
2024/01/05 04:13:04;;;;;;;3.08;1.00;;;10.10;99.90;;;;;;5024999;28;20689;-77
2024/01/05 04:15:38;;;;;;;5.95;1.58;;;10.10;99.90;;;;;;5028327;28;20169;-77
2024/01/05 04:18:04;;;;;;;7.95;1.10;;;10.00;99.90;;;;;;5051120;28;20208;-76
2024/01/05 04:20:30;;;;;;;5.15;1.33;;;10.00;99.90;;;;;;5024013;28;20224;-76
2024/01/05 04:22:56;;;;;;;4.30;1.07;;;10.10;99.90;;;;;;5029597;28;20190;-76
2024/01/05 04:25:22;;;;;;;4.85;1.80;;;10.10;99.90;;;;;;5032582;28;20177;-76
2024/01/05 04:27:47;;;;;;;4.17;0.93;;;10.20;99.90;;;;;;5029699;28;20283;-76
2024/01/05 04:30:13;;;;;;;7.90;1.63;;;10.20;99.90;;;;;;5044114;28;20700;-76
2024/01/05 04:32:39;;;;;;;5.13;1.30;;;10.20;99.90;;;;;;5034597;28;20185;-76
2024/01/05 04:35:05;;;;;;;4.03;0.90;;;10.30;99.90;;;;;;5026138;28;20551;-76
2024/01/05 04:37:30;;;;;;;4.07;1.30;;;10.40;99.90;;;;;;5025517;28;20201;-76
2024/01/05 04:39:56;;;;;;;5.27;1.00;;;10.40;99.90;;;;;;5025783;28;21317;-77
2024/01/05 04:42:22;;;;;;;6.33;1.30;;;10.50;99.90;;;;;;5017398;28;20223;-77
2024/01/05 04:44:49;;;;;;;4.70;1.40;;;10.50;99.90;;;;;;5030706;28;20172;-77
2024/01/05 04:47:15;;;;;;;8.20;1.20;;;10.50;99.90;;;;;;5015957;28;20689;-76
2024/01/05 04:49:41;;;;;;;3.35;1.00;;;10.60;99.90;;;;;;5014532;28;20228;-77
2024/01/05 04:52:07;;;;;;;5.07;1.13;;;10.60;99.90;;;;;;5023620;28;20177;-77
2024/01/05 04:54:33;;;;;;;4.33;1.67;;;10.70;99.90;;;;;;5020550;28;20200;-77
2024/01/05 04:56:58;;;;;;;6.83;1.53;;;10.70;99.90;;;;;;5013920;28;20653;-77
2024/01/05 04:59:24;;;;;;;3.97;1.20;;;10.70;99.90;;;;;;5026200;28;20180;-78
2024/01/05 05:01:50;;;;;;;4.13;1.17;;;10.80;99.90;;;;;;5030808;28;20181;-77
2024/01/05 05:04:17;;;;;;;4.20;1.00;;;10.80;99.90;;;;;;5014625;28;20183;-77
2024/01/05 05:06:44;;;;;;;9.68;1.25;;;10.90;99.90;;;;;;5013656;28;20240;-77
2024/01/05 05:09:10;;;;;;;4.05;1.10;;;10.90;99.90;;;;;;5013765;28;20200;-77
2024/01/05 05:11:39;;;;;;;5.78;1.08;;;11.00;99.90;;;;;;5031967;28;20192;-77
2024/01/05 05:14:04;;;;;;;6.65;1.30;;;11.00;99.90;;;;;;5022235;28;20211;-77
2024/01/05 05:16:30;;;;;;;5.20;1.00;;;11.00;99.90;;;;;;5013947;28;20217;-77
2024/01/05 05:18:55;;;;;;;3.93;0.93;;;11.00;99.90;;;;;;5029862;28;20242;-77
2024/01/05 05:21:22;;;;;;;4.90;1.00;;;11.00;99.90;;;;;;5031588;28;20209;-77
2024/01/05 05:23:48;;;;;;;4.55;1.10;;;11.10;99.90;;;;;;5020481;28;20173;-77
2024/01/05 05:26:13;;;;;;;5.73;1.27;;;11.10;99.90;;;;;;5006959;28;20204;-77
2024/01/05 05:28:39;;;;;;;2.63;0.80;;;11.10;99.90;;;;;;5012652;28;20296;-77
2024/01/05 05:31:05;;;;;;;3.37;1.17;;;11.20;99.90;;;;;;5013639;28;20185;-77
2024/01/05 05:33:30;;;;;;;3.23;1.53;;;11.20;99.90;;;;;;5025985;28;20181;-77
2024/01/05 05:35:56;;;;;;;4.77;1.00;;;11.20;99.90;;;;;;5017206;28;20185;-77
2024/01/05 05:38:22;;;;;;;2.67;0.90;;;11.30;99.90;;;;;;5017191;28;20538;-77
2024/01/05 05:40:48;;;;;;;3.03;1.30;;;11.30;99.90;;;;;;5016253;28;20595;-77
2024/01/05 05:43:13;;;;;;;4.07;1.00;;;11.30;99.90;;;;;;5022666;28;20185;-77
2024/01/05 05:45:40;;;;;;;4.77;1.07;;;11.40;99.90;;;;;;5026843;28;20180;-77
2024/01/05 05:48:06;;;;;;;4.05;1.00;;;11.40;99.90;;;;;;5023326;28;20213;-77
2024/01/05 05:50:32;;;;;;;5.67;1.40;;;11.40;99.90;;;;;;5013164;28;20208;-77
2024/01/05 05:52:58;;;;;;;2.83;1.10;;;11.40;99.90;;;;;;5013254;28;20197;-77
2024/01/05 05:55:24;;;;;;;8.00;1.30;;;11.50;99.90;;;;;;5021122;28;20592;-77
2024/01/05 05:57:49;;;;;;;3.37;1.00;;;11.50;99.90;;;;;;5027246;28;20370;-77
2024/01/05 06:00:15;;;;;;;3.40;1.30;;;11.50;99.90;;;;;;5008526;28;20235;-77
2024/01/05 06:02:41;;;;;;;5.80;1.10;;;11.50;99.90;;;;;;5019115;28;20631;-77
2024/01/05 06:05:07;;;;;;;3.83;1.43;;;11.50;99.90;;;;;;5030414;28;20596;-77
2024/01/05 06:07:33;;;;;;;2.67;1.20;;;11.50;99.90;;;;;;5012223;28;20215;-77
2024/01/05 06:09:58;;;;;;;5.37;1.30;;;11.40;99.90;;;;;;5030726;28;20623;-77
2024/01/05 06:12:24;;;;;;;4.80;1.20;;;11.40;99.90;;;;;;5024250;28;20576;-78
2024/01/05 06:14:50;;;;;;;4.87;1.43;;;11.40;99.90;;;;;;5047407;28;20197;-77
2024/01/05 06:17:16;;;;;;;6.03;1.10;;;11.40;99.90;;;;;;4995958;28;20236;-77
2024/01/05 06:19:43;;;;;;;3.13;0.80;;;11.30;99.90;;;;;;5012781;28;20177;-77
2024/01/05 06:22:09;;;;;;;4.05;1.10;;;11.30;99.90;;;;;;4996363;28;20185;-77
2024/01/05 06:24:34;;;;;;;2.33;0.80;;;11.20;99.90;;;;;;5043411;28;20222;-77
2024/01/05 06:27:00;;;;;;;4.37;1.10;;;11.20;99.90;;;;;;5015943;28;20355;-77
2024/01/05 06:29:26;;;;;;;6.10;1.60;;;11.20;99.90;;;;;;5032505;28;20169;-77
2024/01/05 06:31:51;;;;;;;2.70;1.00;;;11.10;99.90;;;;;;5050746;28;20165;-78
2024/01/05 06:34:17;;;;;;;2.80;0.90;;;11.10;99.90;;;;;;5015996;28;20170;-77
2024/01/05 06:36:43;;;;;;;2.03;1.00;;;11.10;99.90;;;;;;5044444;28;20259;-77
2024/01/05 06:39:08;;;;;;;3.30;1.10;;;11.10;99.90;;;;;;5012821;28;20678;-77
2024/01/05 06:41:34;;;;;;;3.50;1.17;;;11.10;99.90;;;;;;5016505;28;20635;-77
2024/01/05 06:44:00;;;;;;;3.63;1.27;;;11.10;99.90;;;;;;5025042;28;20196;-77
2024/01/05 06:46:27;;;;;;;3.40;1.03;;;11.10;99.90;;;;;;5016668;28;20604;-78
2024/01/05 06:48:54;;;;;;;3.00;1.00;;;11.00;99.90;;;;;;5016127;28;20592;-77
2024/01/05 06:51:23;;;;;;;3.30;0.93;;;11.00;99.90;;;;;;5034739;28;20553;-77
2024/01/05 06:53:49;;;;;;;2.80;0.90;;;11.10;99.90;;;;;;5002552;28;20209;-77
2024/01/05 06:56:14;;;;;;;3.20;0.87;;;11.10;99.90;;;;;;5011378;28;20682;-78
2024/01/05 06:58:40;;;;;;;4.23;1.43;;;11.10;99.90;;;;;;5034495;28;21466;-77
2024/01/05 07:01:06;;;;;;;3.90;1.90;;;11.10;99.90;;;;;;5016776;28;20177;-77
2024/01/05 07:03:32;;;;;;;4.13;1.00;;;11.10;99.90;;;;;;5024205;28;20200;-77
2024/01/05 07:05:58;;;;;;;2.80;1.00;;;11.10;99.90;;;;;;5016138;28;20584;-77
2024/01/05 07:08:24;;;;;;;3.07;1.07;;;11.00;99.90;;;;;;5033335;28;20193;-77
2024/01/05 07:10:49;;;;;;;3.05;0.80;;;11.10;99.90;;;;;;5014065;28;20177;-78
2024/01/05 07:13:15;;;;;;;4.93;1.10;;;11.10;99.90;;;;;;5027694;28;20208;-78
2024/01/05 07:15:41;;;;;;;4.60;1.07;;;11.10;99.90;;;;;;5030899;28;20731;-77
2024/01/05 07:18:07;;;;;;;8.57;2.28;;;11.10;99.90;;;;;;5039011;28;20209;-76
2024/01/05 07:20:33;;;;;;;6.07;1.07;;;11.10;99.90;;;;;;5016095;28;20174;-76
2024/01/05 07:22:59;;;;;;;2.50;0.80;;;11.10;99.90;;;;;;5017817;28;20177;-75
2024/01/05 07:25:25;;;;;;;2.38;0.80;;;11.10;99.90;;;;;;5028059;28;20566;-76
2024/01/05 07:27:51;;;;;;;3.33;1.10;;;11.00;99.90;;;;;;5039994;28;20219;-76
2024/01/05 07:30:17;;;;;;;5.27;1.47;;;11.00;99.90;;;;;;5018674;28;20683;-76
2024/01/05 07:32:43;;;;;;;3.50;1.10;;;11.00;99.90;;;;;;5024555;28;20178;-76
2024/01/05 07:35:10;;;;;;;2.63;0.90;;;11.00;99.90;;;;;;5015665;28;20269;-77
2024/01/05 07:37:38;;;;;;;2.28;0.85;;;10.90;99.90;;;;;;5014972;28;20567;-76
2024/01/05 07:40:04;;;;;;;4.43;1.35;;;11.00;99.90;;;;;;5023795;28;20186;-76
2024/01/05 07:42:31;;;;;;;3.63;1.05;;;11.00;99.90;;;;;;5031376;28;20546;-76
2024/01/05 07:44:57;;;;;;;5.95;1.00;;;10.90;99.90;;;;;;4999046;28;20220;-76
2024/01/05 07:47:24;;;;;;;4.75;1.10;;;11.00;99.90;;;;;;5014396;28;20197;-76
2024/01/05 07:49:49;;;;;;;4.60;1.25;;;11.00;99.90;;;;;;5015462;28;20268;-76
2024/01/05 07:52:16;;;;;;;2.73;1.07;;;10.90;99.90;;;;;;5014860;28;20665;-75
2024/01/05 07:54:44;;;;;;;4.57;0.93;;;10.90;99.90;;;;;;5022048;28;20263;-75
2024/01/05 07:57:10;;;;;;;3.70;1.00;;;10.90;99.90;;;;;;5006398;28;20293;-74
2024/01/05 07:59:35;;;;;;;2.33;1.00;;;10.90;99.90;;;;;;5023644;28;20236;-75
2024/01/05 08:02:01;;;;;;;4.53;1.00;;;10.90;99.90;;;;;;5019509;28;20174;-75
2024/01/05 08:04:28;;;;;;;2.17;0.80;;;10.90;99.90;;;;;;5033682;28;20696;-74
2024/01/05 08:06:53;;;;;;;2.30;0.82;;;10.80;99.90;;;;;;5034519;28;20643;-75
2024/01/05 08:09:19;;;;;;;2.57;0.90;;;10.80;99.90;;;;;;5007143;28;20203;-75
2024/01/05 08:11:45;;;;;;;3.00;0.90;;;10.80;99.90;;;;;;5021509;28;20647;-74
2024/01/05 08:14:11;;;;;;;2.90;1.00;;;10.80;99.90;;;;;;4998565;28;20208;-75
2024/01/05 08:16:37;;;;;;;1.90;0.93;;;10.80;99.90;;;;;;5036772;28;20294;-75
2024/01/05 08:19:03;;;;;;;2.47;1.00;;;10.80;99.90;;;;;;5016118;28;20236;-75
2024/01/05 08:21:29;;;;;;;5.43;2.37;;;10.90;99.90;;;;;;5014301;28;20596;-76
2024/01/05 08:23:54;;;;;;;5.20;1.40;;;10.90;99.90;;;;;;5026013;28;20185;-76
2024/01/05 08:26:20;;;;;;;2.57;1.00;;;10.90;99.90;;;;;;5034138;28;20185;-76
2024/01/05 08:28:46;;;;;;;3.03;0.90;;;11.00;99.90;;;;;;5012384;28;20181;-76
2024/01/05 08:31:12;;;;;;;2.58;1.02;;;10.90;99.90;;;;;;5022600;28;20178;-76
2024/01/05 08:33:38;;;;;;;2.33;0.80;;;10.90;99.90;;;;;;5015641;28;22657;-76
2024/01/05 08:36:04;;;;;;;2.90;0.97;;;11.00;99.90;;;;;;5049439;28;20630;-76
2024/01/05 08:38:29;;;;;;;3.20;0.80;;;10.90;99.90;;;;;;5048832;28;20223;-76
2024/01/05 08:40:55;;;;;;;2.50;0.90;;;11.00;99.90;;;;;;5027767;28;20588;-74
2024/01/05 08:43:21;;;;;;;2.97;0.80;;;10.90;99.90;;;;;;5026255;28;20202;-74
2024/01/05 08:45:47;;;;;;;1.50;0.60;;;10.90;99.90;;;;;;5038502;28;20568;-74
2024/01/05 08:48:15;;;;;;;2.57;0.70;;;11.00;99.90;;;;;;5031101;28;20612;-74
2024/01/05 08:50:41;;;;;;;1.63;0.50;;;11.00;99.90;;;;;;5017999;28;20271;-74
2024/01/05 08:53:08;;;;;;;4.68;1.25;;;11.00;99.90;;;;;;5025649;28;20220;-74
2024/01/05 08:55:35;;;;;;;1.50;0.73;;;11.00;99.90;;;;;;5033464;28;20169;-75
2024/01/05 08:58:02;;;;;;;2.00;0.60;;;11.10;99.90;;;;;;5018016;28;20330;-75
2024/01/05 09:00:28;;;;;;;2.15;0.63;;;11.10;99.90;;;;;;5041612;28;20639;-74
2024/01/05 09:02:55;;;;;;;1.55;0.50;;;11.20;99.90;;;;;;5016001;28;20169;-74
2024/01/05 09:05:21;;;;;;;3.22;0.60;;;11.40;99.90;;;;;;5038205;28;20186;-75
2024/01/05 09:07:48;;;;;;;2.57;0.67;;;11.50;99.90;;;;;;5029091;28;20227;-75
2024/01/05 09:10:14;;;;;;;1.83;0.60;;;11.60;99.90;;;;;;5010240;28;20683;-76
2024/01/05 09:12:40;;;;;;;2.63;0.57;;;11.80;99.90;;;;;;5019912;28;20265;-75
2024/01/05 09:15:07;;;;;;;2.40;0.63;;;11.90;99.90;;;;;;5027502;28;20975;-76
2024/01/05 09:17:33;;;;;;;1.30;0.60;;;12.00;99.90;;;;;;5021803;28;21060;-77
2024/01/05 09:19:59;;;;;;;1.50;0.50;;;12.10;99.90;;;;;;5013714;28;20185;-76
2024/01/05 09:22:25;;;;;;;1.60;0.60;;;12.10;99.90;;;;;;5035417;28;20630;-76
2024/01/05 09:24:50;;;;;;;1.67;0.50;;;12.20;99.90;;;;;;5019806;28;20612;-76
2024/01/05 09:27:16;;;;;;;1.40;0.60;;;12.20;99.90;;;;;;5013195;28;20288;-76
2024/01/05 09:29:42;;;;;;;1.40;0.50;;;12.20;99.90;;;;;;5012556;28;20178;-76
2024/01/05 09:32:08;;;;;;;1.30;0.43;;;12.20;99.90;;;;;;5031757;28;20972;-75
2024/01/05 09:34:33;;;;;;;1.70;0.50;;;12.20;99.90;;;;;;5013704;28;20185;-75
2024/01/05 09:36:59;;;;;;;1.30;0.50;;;12.20;99.90;;;;;;5012843;28;20232;-75
2024/01/05 09:39:25;;;;;;;1.90;0.50;;;12.10;99.90;;;;;;5031955;28;20177;-75
2024/01/05 09:41:50;;;;;;;1.60;0.40;;;12.10;99.90;;;;;;5015822;28;20177;-75
2024/01/05 09:44:17;;;;;;;1.30;0.50;;;12.10;99.90;;;;;;5020722;28;20181;-75
2024/01/05 09:46:44;;;;;;;1.80;0.60;;;12.10;99.90;;;;;;5032613;28;20197;-75
2024/01/05 09:49:13;;;;;;;1.70;0.60;;;12.20;99.90;;;;;;5030812;28;20601;-75
2024/01/05 09:51:39;;;;;;;1.40;0.50;;;12.20;99.90;;;;;;5020725;28;20921;-75
2024/01/05 09:54:06;;;;;;;1.13;0.40;;;12.30;99.90;;;;;;5012768;28;20955;-75
2024/01/05 09:56:32;;;;;;;1.80;0.60;;;12.40;99.90;;;;;;5012756;28;20683;-75
2024/01/05 09:58:59;;;;;;;1.40;0.50;;;12.40;99.90;;;;;;5013154;28;20595;-76
2024/01/05 10:01:26;;;;;;;1.30;0.43;;;12.50;99.90;;;;;;5014749;28;20634;-76
2024/01/05 10:03:55;;;;;;;2.25;0.40;;;12.60;99.90;;;;;;5012623;28;20584;-76
2024/01/05 10:06:21;;;;;;;1.10;0.50;;;12.70;99.90;;;;;;5036973;28;20219;-76
2024/01/05 10:08:50;;;;;;;1.77;0.40;;;12.80;99.90;;;;;;5012269;28;20607;-76
2024/01/05 10:11:27;;;;;;;1.10;0.40;;;12.90;99.90;;;;;;5012891;28;20592;-76
2024/01/05 10:13:54;;;;;;;1.20;0.50;;;12.90;99.90;;;;;;5012316;28;20631;-76
2024/01/05 10:16:23;;;;;;;1.83;0.40;;;12.90;99.90;;;;;;5030049;28;20644;-76
2024/01/05 10:18:50;;;;;;;1.40;0.40;;;13.00;99.90;;;;;;5012159;28;20588;-76
2024/01/05 10:21:16;;;;;;;1.20;0.60;;;13.00;99.90;;;;;;5030283;28;20584;-76
2024/01/05 10:23:42;;;;;;;3.87;0.50;;;13.10;99.90;;;;;;5013439;28;20593;-75
2024/01/05 10:26:19;;;;;;;1.10;0.40;;;13.10;99.90;;;;;;5011871;28;20584;-76
2024/01/05 10:28:47;;;;;;;1.10;0.40;;;13.20;99.90;;;;;;5024080;28;20686;-75
2024/01/05 10:31:15;;;;;;;1.43;0.50;;;13.20;99.90;;;;;;5024477;28;20593;-76
2024/01/05 10:33:55;;;;;;;1.20;0.40;;;13.30;99.90;;;;;;5064796;28;20583;-76
2024/01/05 10:36:26;;;;;;;1.50;0.50;;;13.40;99.90;;;;;;5036395;28;21009;-76
2024/01/05 10:38:52;;;;;;;2.90;0.60;;;13.50;99.90;;;;;;5018398;28;20589;-76
2024/01/05 10:41:20;;;;;;;1.20;0.40;;;13.60;99.90;;;;;;5027982;28;21172;-76
2024/01/05 10:43:47;;;;;;;1.10;0.40;;;13.60;99.90;;;;;;5008026;28;20191;-76
2024/01/05 10:46:22;;;;;;;2.33;0.50;;;13.70;99.90;;;;;;4999926;28;20616;-76
2024/01/05 10:48:49;;;;;;;2.20;0.40;;;13.70;99.90;;;;;;5044734;28;20585;-76
2024/01/05 10:51:16;;;;;;;1.30;0.40;;;13.70;99.90;;;;;;5024089;28;20593;-76
2024/01/05 10:53:47;;;;;;;1.73;0.53;;;13.70;99.90;;;;;;5015070;28;20644;-76
2024/01/05 10:56:13;;;;;;;2.33;0.50;;;13.60;99.90;;;;;;5007557;28;20620;-76
2024/01/05 10:58:39;;;;;;;1.23;0.50;;;13.60;99.90;;;;;;5006385;28;20683;-76
2024/01/05 11:01:06;;;;;;;1.50;0.40;;;13.50;99.90;;;;;;5041727;28;20982;-76
2024/01/05 11:03:37;;;;;;;2.33;0.40;;;13.50;99.90;;;;;;5039244;28;20584;-76
2024/01/05 11:06:08;;;;;;;2.40;0.40;;;13.40;99.90;;;;;;5013987;28;20703;-74
2024/01/05 11:09:13;;;;;;;1.87;0.50;;;13.40;99.90;;;;;;5012679;28;21243;-76
2024/01/05 11:11:48;;;;;;;1.40;0.50;;;13.30;99.90;;;;;;5032333;28;20612;-76
2024/01/05 11:14:32;;;;;;;1.80;0.73;;;13.30;99.90;;;;;;5019552;28;20588;-76
2024/01/05 11:17:28;;;;;;;1.73;0.40;;;13.30;99.90;;;;;;5026755;28;20647;-78
2024/01/05 11:20:13;;;;;;;2.03;0.50;;;13.30;99.90;;;;;;5031069;28;20591;-80
2024/01/05 11:22:41;;;;;;;1.20;0.40;;;13.30;99.90;;;;;;5032196;28;20577;-79
2024/01/05 11:25:08;;;;;;;1.70;0.40;;;13.30;99.90;;;;;;5049391;28;20607;-79
2024/01/05 11:27:35;;;;;;;1.53;0.50;;;13.30;99.90;;;;;;5016100;28;21212;-79
2024/01/05 11:30:04;;;;;;;1.20;0.40;;;13.40;99.90;;;;;;5015843;28;20620;-80
2024/01/05 11:32:42;;;;;;;1.23;0.50;;;13.40;99.90;;;;;;5015470;28;20588;-78
2024/01/05 11:35:16;;;;;;;1.47;0.40;;;13.40;99.90;;;;;;5044594;28;20583;-79
2024/01/05 11:37:49;;;;;;;1.10;0.40;;;13.50;99.90;;;;;;5023456;28;20650;-80
2024/01/05 11:40:28;;;;;;;1.50;0.43;;;13.50;99.90;;;;;;5015304;28;20588;-78
2024/01/05 11:42:57;;;;;;;1.23;0.50;;;13.60;99.90;;;;;;5022870;28;20583;-78
2024/01/05 11:45:41;;;;;;;1.73;0.70;;;13.70;99.90;;;;;;5015543;28;20671;-79
2024/01/05 11:48:08;;;;;;;1.40;0.40;;;13.70;99.90;;;;;;5039215;28;20618;-78
2024/01/05 11:50:37;;;;;;;2.67;0.60;;;13.80;99.90;;;;;;5037641;28;20607;-80
2024/01/05 11:53:16;;;;;;;1.40;0.50;;;13.70;99.90;;;;;;5003847;28;20691;-79
2024/01/05 11:55:50;;;;;;;1.40;0.60;;;13.70;99.90;;;;;;5041201;28;20947;-78
2024/01/05 11:58:28;;;;;;;1.50;0.50;;;13.60;99.90;;;;;;5022320;28;20652;-79
2024/01/05 12:01:00;;;;;;;1.67;0.50;;;13.60;99.90;;;;;;5033294;28;21192;-80
2024/01/05 12:03:27;;;;;;;1.80;0.50;;;13.50;99.90;;;;;;5000275;28;20595;-81
2024/01/05 12:06:12;;;;;;;1.40;0.60;;;13.50;99.90;;;;;;5035595;28;20586;-81
2024/01/05 12:08:39;;;;;;;2.33;0.80;;;13.50;99.90;;;;;;5014507;28;20599;-81
2024/01/05 12:11:08;;;;;;;2.70;0.63;;;13.40;99.90;;;;;;5048028;28;20637;-81
2024/01/05 12:13:35;;;;;;;1.97;0.50;;;13.40;99.90;;;;;;5017052;28;20584;-81
2024/01/05 12:16:03;;;;;;;2.40;0.57;;;13.40;99.90;;;;;;5033094;28;20580;-82
2024/01/05 12:18:33;;;;;;;1.10;0.40;;;13.30;99.90;;;;;;5014716;28;20580;-79
2024/01/05 12:21:01;;;;;;;1.87;0.70;;;13.30;99.90;;;;;;5052955;28;20583;-79
2024/01/05 12:23:28;;;;;;;1.43;0.60;;;13.30;99.90;;;;;;5025655;28;20640;-79
2024/01/05 12:26:04;;;;;;;3.20;0.80;;;13.40;99.90;;;;;;5015014;28;20921;-79
2024/01/05 12:28:30;;;;;;;2.50;0.93;;;13.40;99.90;;;;;;5036708;28;20682;-80
2024/01/05 12:30:57;;;;;;;2.00;0.70;;;13.50;99.90;;;;;;5023281;28;20580;-80
2024/01/05 12:33:25;;;;;;;1.77;0.70;;;13.50;99.90;;;;;;5040882;28;20576;-80
2024/01/05 12:35:52;;;;;;;2.83;0.57;;;13.60;99.90;;;;;;5014952;28;20592;-80
2024/01/05 12:38:28;;;;;;;1.93;0.70;;;13.60;99.90;;;;;;5031769;28;20624;-80
2024/01/05 12:41:14;;;;;;;1.90;0.50;;;13.60;99.90;;;;;;5022265;28;20695;-78
2024/01/05 12:43:44;;;;;;;3.10;0.80;;;13.70;99.90;;;;;;5016492;28;20584;-79
2024/01/05 12:46:10;;;;;;;1.90;0.87;;;13.80;99.90;;;;;;5034304;28;20588;-80